Hillsborough, New Jersey
Current Conditions -  °F | °C
As of 3:53 AM on Monday 24 Nov 2014 (Local Time) from KSMQ Reporting Station
Heavy Rain Heavy Rain  
Wind Chill: 60°   Ceiling: 1200
Heat Index: 60°   Visibility: 3mi
Dew Point: 58°   Wind: 8mph
Humidity: 93%   Direction: 150°SSE
Pressure: 29.7"   Gusts: 21mph
Location:  40.5°N, 74.69°W
Report Text: KSMQ 240853Z AUTO 15007G18KT 3SM +RA BR BKN012 OVC017 16/14 A2970 RMK AO2 SLP056 P0019 60037 T01560144 58048
Loading
Personal Weather Stations






























Interactive Weather Map New forecast layout! Learn more

10-Day Weather Forecast

Advertisements
Track Severe Weather on mobile